createdAt,value
2022-12-16T00:01:51.931Z,8.70
2022-12-16T00:04:23.369Z,8.45
2022-12-16T00:06:54.849Z,7.87
2022-12-16T00:09:26.277Z,7.45
2022-12-16T00:11:57.764Z,6.18
2022-12-16T00:14:29.193Z,7.45
2022-12-16T00:17:00.589Z,6.68
2022-12-16T00:19:32.122Z,7.10
2022-12-16T00:22:03.505Z,6.53
2022-12-16T00:24:34.909Z,6.47
2022-12-16T00:27:06.345Z,5.85
2022-12-16T00:29:37.755Z,4.95
2022-12-16T00:32:09.180Z,4.55
2022-12-16T00:34:40.596Z,6.90
2022-12-16T00:37:12.535Z,5.25
2022-12-16T00:39:43.954Z,5.30
2022-12-16T00:42:15.321Z,4.93
2022-12-16T00:44:46.720Z,5.00
2022-12-16T00:47:18.142Z,5.05
2022-12-16T00:49:49.552Z,5.03
2022-12-16T00:52:20.933Z,5.60
2022-12-16T00:54:52.364Z,6.60
2022-12-16T00:57:23.813Z,5.10
2022-12-16T00:59:55.268Z,9.77
2022-12-16T01:02:26.818Z,7.43
2022-12-16T01:04:58.427Z,6.20
2022-12-16T01:07:29.819Z,10.02
2022-12-16T01:10:01.400Z,10.07
2022-12-16T01:12:33.897Z,9.07
2022-12-16T01:15:07.756Z,11.23
2022-12-16T01:17:39.971Z,11.03
2022-12-16T01:20:11.670Z,13.38
2022-12-16T01:22:43.061Z,13.27
2022-12-16T01:25:14.482Z,12.75
2022-12-16T01:27:45.874Z,15.57
2022-12-16T01:30:17.280Z,8.85
2022-12-16T01:32:48.725Z,10.15
2022-12-16T01:35:51.536Z,9.67
2022-12-16T01:38:11.500Z,8.90
2022-12-16T01:40:42.900Z,9.48
2022-12-16T01:43:15.431Z,7.85
2022-12-16T01:45:46.881Z,7.68
2022-12-16T01:48:38.079Z,8.10
2022-12-16T01:51:24.555Z,6.93
2022-12-16T01:54:42.333Z,12.45
2022-12-16T01:57:18.640Z,9.10
2022-12-16T01:59:53.954Z,7.63
2022-12-16T02:02:25.810Z,10.10
2022-12-16T02:04:57.867Z,7.75
2022-12-16T02:07:29.325Z,9.77
2022-12-16T02:10:00.779Z,6.63
2022-12-16T02:12:59.348Z,5.93
2022-12-16T02:15:42.561Z,7.83
2022-12-16T02:18:45.096Z,5.80
2022-12-16T02:21:38.935Z,5.53
2022-12-16T02:24:32.208Z,5.37
2022-12-16T02:27:44.795Z,6.93
2022-12-16T02:30:24.690Z,7.60
2022-12-16T02:33:31.886Z,5.55
2022-12-16T02:36:30.517Z,7.32
2022-12-16T02:39:23.373Z,10.18
2022-12-16T02:42:26.457Z,5.82
2022-12-16T02:45:01.926Z,7.70
2022-12-16T02:47:33.350Z,5.70
2022-12-16T02:50:14.738Z,6.50
2022-12-16T02:52:46.284Z,9.50
2022-12-16T02:55:17.856Z,5.85
2022-12-16T02:58:14.150Z,5.93
2022-12-16T03:01:05.807Z,8.00
2022-12-16T03:03:50.024Z,5.75
2022-12-16T03:06:23.145Z,7.85
2022-12-16T03:08:59.387Z,5.68
2022-12-16T03:11:32.280Z,6.00
2022-12-16T03:14:07.355Z,5.47
2022-12-16T03:16:39.159Z,5.63
2022-12-16T03:19:11.728Z,6.88
2022-12-16T03:21:55.571Z,6.70
2022-12-16T03:24:28.040Z,6.45
2022-12-16T03:27:21.020Z,5.40
2022-12-16T03:30:04.610Z,4.75
2022-12-16T03:32:41.545Z,8.75
2022-12-16T03:35:18.949Z,5.10
2022-12-16T03:37:54.697Z,10.15
2022-12-16T03:40:28.368Z,8.85
2022-12-16T03:43:02.525Z,5.88
2022-12-16T03:45:40.687Z,5.75
2022-12-16T03:48:13.669Z,5.43
2022-12-16T03:50:45.121Z,5.40
2022-12-16T03:53:16.569Z,6.50
2022-12-16T03:55:47.968Z,5.23
2022-12-16T03:58:19.444Z,9.13
2022-12-16T04:00:50.832Z,6.53
2022-12-16T04:03:22.253Z,5.90
2022-12-16T04:05:53.717Z,5.88
2022-12-16T04:08:25.178Z,5.80
2022-12-16T04:10:56.653Z,6.05
2022-12-16T04:13:28.109Z,6.30
2022-12-16T04:16:00.478Z,6.93
2022-12-16T04:18:32.816Z,5.15
2022-12-16T04:21:04.616Z,3.90
2022-12-16T04:23:37.797Z,6.50
2022-12-16T04:26:09.551Z,4.80
2022-12-16T04:28:41.022Z,4.85
2022-12-16T04:31:12.550Z,3.92
2022-12-16T04:33:44.111Z,3.85
2022-12-16T04:36:15.600Z,6.88
2022-12-16T04:38:47.043Z,7.13
2022-12-16T04:41:18.579Z,5.85
2022-12-16T04:43:50.098Z,6.35
2022-12-16T04:46:21.698Z,7.57
2022-12-16T04:48:53.076Z,5.70
2022-12-16T04:51:24.487Z,4.47
2022-12-16T04:53:55.861Z,6.85
2022-12-16T04:56:30.731Z,4.20
2022-12-16T04:59:02.150Z,5.72
2022-12-16T05:01:33.634Z,5.82
2022-12-16T05:04:05.311Z,6.18
2022-12-16T05:06:36.884Z,3.78
2022-12-16T05:09:08.300Z,7.22
2022-12-16T05:11:39.687Z,4.70
2022-12-16T05:14:11.132Z,9.15
2022-12-16T05:16:42.567Z,8.52
2022-12-16T05:19:14.127Z,5.28
2022-12-16T05:21:45.519Z,6.15
2022-12-16T05:24:16.970Z,4.50
2022-12-16T05:26:48.409Z,3.80
2022-12-16T05:29:19.829Z,4.47
2022-12-16T05:31:51.280Z,5.93
2022-12-16T05:34:22.738Z,4.55
2022-12-16T05:36:54.121Z,5.05
2022-12-16T05:39:25.556Z,5.53
2022-12-16T05:41:57.176Z,7.40
2022-12-16T05:44:28.618Z,5.07
2022-12-16T05:47:00.169Z,3.60
2022-12-16T05:49:31.676Z,6.43
2022-12-16T05:52:03.572Z,5.25
2022-12-16T05:54:34.984Z,4.75
2022-12-16T05:57:06.389Z,4.45
2022-12-16T05:59:37.761Z,5.88
2022-12-16T06:02:09.304Z,4.60
2022-12-16T06:04:40.856Z,4.82
2022-12-16T06:07:12.239Z,4.78
2022-12-16T06:09:43.639Z,6.77
2022-12-16T06:12:15.108Z,4.72
2022-12-16T06:14:46.519Z,6.65
2022-12-16T06:17:18.127Z,8.20
2022-12-16T06:19:49.564Z,9.68
2022-12-16T06:22:21.008Z,6.65
2022-12-16T06:24:52.395Z,9.68
2022-12-16T06:27:23.765Z,6.72
2022-12-16T06:29:58.717Z,6.25
2022-12-16T06:32:30.132Z,5.50
2022-12-16T06:35:01.550Z,7.38
2022-12-16T06:37:32.985Z,8.00
2022-12-16T06:40:05.043Z,6.70
2022-12-16T06:42:40.589Z,6.90
2022-12-16T06:45:12.384Z,6.88
2022-12-16T06:47:44.260Z,6.47
2022-12-16T06:50:15.773Z,5.35
2022-12-16T06:52:47.245Z,6.50
2022-12-16T06:55:18.661Z,6.80
2022-12-16T06:57:57.200Z,3.63
2022-12-16T07:00:28.659Z,8.88
2022-12-16T07:03:00.185Z,6.40
2022-12-16T07:05:31.672Z,8.23
2022-12-16T07:08:03.170Z,7.70
2022-12-16T07:10:34.754Z,7.43
2022-12-16T07:13:06.166Z,7.88
2022-12-16T07:15:37.591Z,7.97
2022-12-16T07:18:08.998Z,7.60
2022-12-16T07:20:40.452Z,7.28
2022-12-16T07:23:17.732Z,8.45
2022-12-16T07:25:51.136Z,6.90
2022-12-16T07:28:22.578Z,6.50
2022-12-16T07:30:54.040Z,8.35
2022-12-16T07:33:25.461Z,6.55
2022-12-16T07:35:56.914Z,6.85
2022-12-16T07:38:28.491Z,6.85
2022-12-16T07:41:01.125Z,5.80
2022-12-16T07:43:33.013Z,6.63
2022-12-16T07:46:04.877Z,4.28
2022-12-16T07:48:36.388Z,7.18
2022-12-16T07:51:07.834Z,7.40
2022-12-16T07:53:40.377Z,6.57
2022-12-16T07:56:12.200Z,7.43
2022-12-16T07:58:43.601Z,6.57
2022-12-16T08:01:15.345Z,7.93
2022-12-16T08:03:46.844Z,8.35
2022-12-16T08:06:18.319Z,5.95
2022-12-16T08:08:49.743Z,9.23
2022-12-16T08:11:21.161Z,6.57
2022-12-16T08:13:52.662Z,6.13
2022-12-16T08:16:25.079Z,8.23
2022-12-16T08:18:56.619Z,10.68
2022-12-16T08:21:28.053Z,6.70
2022-12-16T08:24:00.547Z,5.78
2022-12-16T08:26:31.993Z,6.63
2022-12-16T08:29:34.775Z,7.88
2022-12-16T08:31:55.018Z,7.93
2022-12-16T08:34:26.813Z,9.38
2022-12-16T08:36:58.236Z,6.78
2022-12-16T08:39:29.618Z,8.27
2022-12-16T08:42:01.065Z,8.60
2022-12-16T08:44:32.485Z,7.63
2022-12-16T08:47:04.061Z,7.50
2022-12-16T08:49:35.579Z,11.07
2022-12-16T08:52:07.088Z,6.20
2022-12-16T08:54:38.497Z,8.27
2022-12-16T08:57:10.257Z,10.15
2022-12-16T08:59:41.701Z,9.25
2022-12-16T09:02:13.453Z,9.40
2022-12-16T09:04:44.959Z,8.50
2022-12-16T09:07:16.380Z,8.02
2022-12-16T09:09:47.835Z,6.88
2022-12-16T09:12:19.245Z,5.30
2022-12-16T09:14:50.708Z,6.53
2022-12-16T09:17:22.755Z,5.65
2022-12-16T09:19:54.203Z,6.95
2022-12-16T09:22:26.764Z,6.35
2022-12-16T09:24:58.177Z,5.30
2022-12-16T09:27:29.587Z,8.75
2022-12-16T09:30:01.013Z,5.28
2022-12-16T09:32:32.437Z,8.13
2022-12-16T09:35:07.420Z,6.65
2022-12-16T09:37:49.872Z,5.10
2022-12-16T09:40:22.505Z,9.48
2022-12-16T09:43:12.609Z,9.60
2022-12-16T09:45:52.846Z,6.78
2022-12-16T09:48:48.486Z,6.55
2022-12-16T09:51:20.545Z,6.68
2022-12-16T09:53:56.079Z,7.38
2022-12-16T09:56:33.146Z,7.72
2022-12-16T09:59:14.240Z,7.22
2022-12-16T10:01:46.057Z,6.93
2022-12-16T10:04:18.072Z,6.53
2022-12-16T10:06:52.817Z,8.32
2022-12-16T10:09:29.777Z,6.32
2022-12-16T10:12:29.032Z,6.85
2022-12-16T10:15:16.488Z,7.10
2022-12-16T10:17:47.908Z,5.32
2022-12-16T10:20:35.291Z,5.97
2022-12-16T10:23:46.971Z,7.80
2022-12-16T10:26:32.030Z,5.30
2022-12-16T10:29:34.362Z,5.97
2022-12-16T10:32:42.585Z,6.10
2022-12-16T10:35:23.257Z,5.78
2022-12-16T10:37:54.772Z,6.47
2022-12-16T10:40:30.695Z,7.90
2022-12-16T10:43:12.842Z,7.30
2022-12-16T10:45:48.800Z,5.57
2022-12-16T10:48:32.130Z,5.60
2022-12-16T10:51:13.482Z,7.95
2022-12-16T10:53:49.491Z,5.32
2022-12-16T10:56:29.885Z,5.87
2022-12-16T10:59:08.708Z,7.47
2022-12-16T11:01:40.804Z,6.18
2022-12-16T11:04:44.288Z,5.97
2022-12-16T11:07:38.438Z,5.32
2022-12-16T11:10:43.457Z,3.50
2022-12-16T11:13:28.714Z,5.82
2022-12-16T11:16:11.024Z,5.63
2022-12-16T11:18:50.072Z,4.40
2022-12-16T11:21:22.402Z,6.18
2022-12-16T11:24:07.888Z,5.05
2022-12-16T11:26:52.822Z,4.82
2022-12-16T11:29:24.223Z,4.85
2022-12-16T11:32:21.295Z,5.57
2022-12-16T11:34:57.845Z,5.90
2022-12-16T11:37:30.643Z,3.42
2022-12-16T11:40:03.145Z,4.40
2022-12-16T11:42:35.988Z,5.07
2022-12-16T11:45:14.548Z,3.97
2022-12-16T11:47:58.667Z,4.35
2022-12-16T11:50:34.157Z,4.53
2022-12-16T11:53:13.755Z,5.85
2022-12-16T11:56:06.973Z,5.78
2022-12-16T11:58:50.180Z,5.28
2022-12-16T12:01:35.364Z,5.70
2022-12-16T12:04:09.211Z,6.00
2022-12-16T12:06:59.394Z,5.33
2022-12-16T12:09:38.206Z,5.82
2022-12-16T12:12:14.956Z,3.78
2022-12-16T12:14:53.079Z,4.20
2022-12-16T12:17:46.102Z,5.57
2022-12-16T12:20:29.833Z,4.82
2022-12-16T12:23:06.965Z,5.30
2022-12-16T12:25:53.607Z,4.38
2022-12-16T12:28:41.001Z,2.75
2022-12-16T12:31:21.364Z,3.17
2022-12-16T12:34:01.998Z,3.85
2022-12-16T12:36:56.791Z,2.72
2022-12-16T12:39:44.232Z,5.32
2022-12-16T12:42:28.758Z,5.25
2022-12-16T12:45:41.960Z,3.58
2022-12-16T12:48:28.736Z,3.00
2022-12-16T12:51:09.830Z,6.20
2022-12-16T12:54:23.304Z,4.55
2022-12-16T12:56:57.870Z,3.35
2022-12-16T13:00:05.805Z,6.00
2022-12-16T13:03:14.063Z,3.58
2022-12-16T13:05:46.602Z,2.93
2022-12-16T13:08:50.519Z,3.20
2022-12-16T13:11:23.810Z,4.35
2022-12-16T13:13:55.568Z,4.93
2022-12-16T13:16:57.494Z,4.88
2022-12-16T13:19:28.890Z,3.63
2022-12-16T13:22:00.327Z,3.63
2022-12-16T13:24:46.713Z,2.70
2022-12-16T13:27:18.228Z,1.48
2022-12-16T13:30:03.667Z,2.63
2022-12-16T13:32:35.094Z,3.05
2022-12-16T13:35:09.365Z,4.05
2022-12-16T13:37:55.130Z,3.53
2022-12-16T13:40:26.620Z,3.53
2022-12-16T13:42:58.251Z,4.43
2022-12-16T13:45:36.483Z,3.00
2022-12-16T13:48:30.297Z,2.80
2022-12-16T13:51:01.943Z,4.22
2022-12-16T13:53:51.606Z,12.05
2022-12-16T13:56:33.596Z,4.57
2022-12-16T13:59:11.701Z,3.97
2022-12-16T14:01:55.315Z,3.55
2022-12-16T14:04:31.299Z,4.55
2022-12-16T14:07:02.898Z,3.90
2022-12-16T14:09:37.434Z,2.83
2022-12-16T14:12:21.051Z,4.38
2022-12-16T14:15:00.115Z,3.88
2022-12-16T14:17:42.058Z,2.35
2022-12-16T14:20:24.243Z,3.67
2022-12-16T14:23:03.775Z,3.92
2022-12-16T14:25:35.693Z,4.10
2022-12-16T14:28:45.479Z,3.63
2022-12-16T14:31:25.096Z,2.63
2022-12-16T14:33:56.583Z,2.47
2022-12-16T14:36:28.989Z,2.80
2022-12-16T14:39:00.440Z,3.30
2022-12-16T14:41:32.003Z,3.40
2022-12-16T14:44:06.012Z,4.28
2022-12-16T14:46:37.470Z,4.45
2022-12-16T14:49:19.780Z,3.17
2022-12-16T14:51:51.226Z,4.07
2022-12-16T14:54:35.953Z,3.88
2022-12-16T14:57:12.868Z,3.50
2022-12-16T14:59:44.348Z,3.33
2022-12-16T15:02:42.842Z,3.03
2022-12-16T15:05:19.186Z,3.10
2022-12-16T15:07:50.869Z,4.95
2022-12-16T15:10:27.132Z,3.33
2022-12-16T15:12:59.017Z,4.80
2022-12-16T15:15:43.216Z,4.50
2022-12-16T15:18:20.312Z,3.47
2022-12-16T15:20:55.468Z,5.45
2022-12-16T15:23:32.222Z,4.70
2022-12-16T15:26:04.412Z,5.87
2022-12-16T15:28:35.770Z,4.90
2022-12-16T15:31:23.559Z,4.30
2022-12-16T15:34:23.256Z,6.82
2022-12-16T15:36:54.742Z,6.00
2022-12-16T15:39:41.334Z,5.30
2022-12-16T15:42:31.017Z,6.32
2022-12-16T15:45:02.578Z,7.50
2022-12-16T15:47:38.388Z,5.77
2022-12-16T15:50:14.317Z,6.28
2022-12-16T15:52:45.820Z,7.07
2022-12-16T15:55:38.161Z,4.90
2022-12-16T15:58:33.259Z,7.13
2022-12-16T16:01:06.990Z,5.10
2022-12-16T16:03:49.957Z,5.45
2022-12-16T16:06:26.633Z,4.95
2022-12-16T16:08:58.072Z,6.20
2022-12-16T16:11:29.461Z,5.53
2022-12-16T16:14:07.134Z,8.02
2022-12-16T16:16:40.813Z,23.80
2022-12-16T16:19:25.041Z,17.63
2022-12-16T16:21:56.486Z,12.88
2022-12-16T16:24:28.049Z,12.95
2022-12-16T16:27:02.049Z,11.48
2022-12-16T16:29:33.540Z,9.68
2022-12-16T16:32:05.132Z,8.43
2022-12-16T16:34:36.525Z,12.32
2022-12-16T16:37:14.405Z,36.08
2022-12-16T16:39:45.791Z,61.17
2022-12-16T16:42:17.278Z,48.75
2022-12-16T16:44:48.716Z,47.25
2022-12-16T16:47:20.108Z,58.92
2022-12-16T16:49:51.556Z,24.27
2022-12-16T16:52:24.832Z,18.73
2022-12-16T16:54:56.290Z,15.30
2022-12-16T16:57:32.312Z,14.35
2022-12-16T17:00:04.213Z,15.88
2022-12-16T17:02:40.558Z,17.83
2022-12-16T17:05:12.989Z,17.15
2022-12-16T17:07:47.027Z,14.50
2022-12-16T17:10:22.074Z,12.35
2022-12-16T17:12:53.455Z,10.70
2022-12-16T17:15:31.326Z,10.33
2022-12-16T17:18:04.035Z,9.90
2022-12-16T17:20:35.452Z,10.23
2022-12-16T17:23:06.929Z,10.93
2022-12-16T17:25:38.374Z,11.90
2022-12-16T17:28:11.534Z,11.63
2022-12-16T17:30:47.314Z,13.85
2022-12-16T17:33:19.159Z,14.00
2022-12-16T17:35:51.584Z,14.07
2022-12-16T17:38:23.016Z,12.05
2022-12-16T17:40:54.379Z,13.80
2022-12-16T17:43:25.827Z,13.55
2022-12-16T17:46:03.515Z,15.75
2022-12-16T17:48:34.993Z,15.25
2022-12-16T17:51:06.406Z,12.05
2022-12-16T17:53:37.795Z,14.93
2022-12-16T17:56:09.196Z,15.73
2022-12-16T17:58:40.714Z,15.57
2022-12-16T18:01:12.161Z,12.82
2022-12-16T18:03:43.626Z,12.10
2022-12-16T18:06:15.129Z,9.43
2022-12-16T18:08:46.544Z,13.90
2022-12-16T18:11:17.985Z,13.32
2022-12-16T18:13:49.405Z,11.52
2022-12-16T18:16:20.909Z,13.25
2022-12-16T18:18:52.450Z,12.00
2022-12-16T18:21:23.979Z,16.35
2022-12-16T18:23:55.460Z,13.75
2022-12-16T18:26:27.120Z,15.23
2022-12-16T18:28:58.609Z,16.02
2022-12-16T18:31:30.162Z,15.52
2022-12-16T18:34:01.647Z,20.00
2022-12-16T18:36:33.083Z,19.00
2022-12-16T18:39:04.595Z,16.00
2022-12-16T18:41:42.096Z,19.83
2022-12-16T18:44:14.082Z,15.15
2022-12-16T18:46:46.839Z,16.65
2022-12-16T18:49:18.428Z,16.20
2022-12-16T18:51:49.875Z,15.80
2022-12-16T18:54:21.339Z,18.70
2022-12-16T18:56:52.839Z,18.53
2022-12-16T18:59:24.325Z,18.55
2022-12-16T19:01:56.006Z,18.75
2022-12-16T19:04:27.476Z,21.73
2022-12-16T19:06:58.917Z,18.92
2022-12-16T19:09:30.349Z,24.15
2022-12-16T19:12:01.750Z,22.10
2022-12-16T19:14:33.158Z,22.20
2022-12-16T19:17:04.854Z,24.52
2022-12-16T19:19:36.246Z,27.52
2022-12-16T19:22:07.682Z,23.75
2022-12-16T19:24:39.105Z,24.90
2022-12-16T19:27:15.161Z,22.37
2022-12-16T19:29:46.941Z,21.55
2022-12-16T19:32:18.426Z,19.88
2022-12-16T19:34:49.852Z,21.95
2022-12-16T19:37:21.276Z,27.55
2022-12-16T19:39:53.837Z,24.90
2022-12-16T19:42:25.309Z,19.38
2022-12-16T19:44:56.887Z,20.13
2022-12-16T19:47:28.413Z,22.55
2022-12-16T19:49:59.800Z,24.07
2022-12-16T19:52:31.274Z,22.05
2022-12-16T19:55:02.710Z,24.90
2022-12-16T19:57:34.165Z,24.58
2022-12-16T20:00:06.631Z,25.35
2022-12-16T20:02:38.324Z,28.83
2022-12-16T20:05:09.906Z,31.75
2022-12-16T20:07:41.497Z,34.28
2022-12-16T20:10:12.966Z,34.45
2022-12-16T20:12:44.372Z,33.45
2022-12-16T20:15:16.176Z,36.80
2022-12-16T20:17:47.603Z,38.38
2022-12-16T20:20:19.167Z,43.20
2022-12-16T20:22:50.585Z,47.03
2022-12-16T20:25:23.440Z,47.17
2022-12-16T20:27:55.082Z,48.40
2022-12-16T20:30:28.007Z,48.47
2022-12-16T20:32:59.445Z,50.75
2022-12-16T20:35:30.872Z,58.90
2022-12-16T20:38:02.536Z,54.60
2022-12-16T20:40:34.019Z,49.77
2022-12-16T20:43:05.415Z,45.60
2022-12-16T20:45:39.715Z,47.72
2022-12-16T20:48:15.520Z,50.65
2022-12-16T20:50:58.351Z,48.67
2022-12-16T20:53:29.753Z,56.13
2022-12-16T20:56:01.605Z,64.38
2022-12-16T20:58:33.059Z,67.88
2022-12-16T21:01:04.958Z,65.63
2022-12-16T21:03:36.418Z,64.72
2022-12-16T21:06:07.900Z,67.97
2022-12-16T21:08:39.506Z,66.75
2022-12-16T21:11:10.966Z,65.15
2022-12-16T21:13:42.416Z,60.78
2022-12-16T21:16:13.936Z,59.70
2022-12-16T21:18:45.857Z,66.43
2022-12-16T21:21:17.309Z,62.17
2022-12-16T21:23:48.700Z,64.95
2022-12-16T21:26:20.364Z,67.45
2022-12-16T21:28:51.875Z,62.83
2022-12-16T21:31:23.538Z,53.45
2022-12-16T21:33:55.480Z,57.10
2022-12-16T21:36:26.952Z,59.92
2022-12-16T21:38:58.376Z,59.67
2022-12-16T21:41:29.841Z,62.93
2022-12-16T21:44:01.214Z,68.22
2022-12-16T21:46:32.622Z,65.65
2022-12-16T21:49:04.073Z,60.20
2022-12-16T21:51:36.662Z,60.22
2022-12-16T21:54:09.600Z,58.33
2022-12-16T21:56:41.343Z,59.28
2022-12-16T21:59:12.808Z,61.28
2022-12-16T22:01:45.643Z,62.45
2022-12-16T22:04:17.127Z,62.00
2022-12-16T22:09:39.973Z,66.53
2022-12-16T22:12:11.425Z,60.97
2022-12-16T22:14:42.877Z,65.47
2022-12-16T22:17:14.398Z,60.97
2022-12-16T22:19:45.902Z,61.88
2022-12-16T22:22:17.343Z,58.92
2022-12-16T22:24:48.790Z,60.15
2022-12-16T22:27:20.408Z,61.13
2022-12-16T22:29:51.803Z,64.00
2022-12-16T22:32:23.250Z,61.60
2022-12-16T22:34:54.684Z,60.53
2022-12-16T22:37:27.165Z,62.72
2022-12-16T22:39:58.582Z,55.97
2022-12-16T22:42:30.027Z,49.35
2022-12-16T22:45:01.462Z,53.33
2022-12-16T22:47:33.015Z,53.92
2022-12-16T22:50:04.834Z,52.35
2022-12-16T22:52:36.280Z,48.50
2022-12-16T22:55:08.024Z,51.03
2022-12-16T22:57:39.432Z,45.80
2022-12-16T23:00:11.524Z,44.42
2022-12-16T23:02:43.016Z,45.13
2022-12-16T23:05:14.454Z,37.97
2022-12-16T23:07:45.890Z,34.22
2022-12-16T23:10:17.317Z,31.88
2022-12-16T23:12:48.708Z,27.73
2022-12-16T23:15:20.169Z,30.23
2022-12-16T23:17:51.586Z,29.52
2022-12-16T23:20:23.264Z,27.48
2022-12-16T23:22:55.408Z,22.80
2022-12-16T23:25:27.636Z,22.02
2022-12-16T23:27:59.075Z,21.37
2022-12-16T23:30:30.501Z,21.88
2022-12-16T23:33:03.758Z,21.83
2022-12-16T23:35:35.161Z,22.00
2022-12-16T23:38:07.205Z,24.42
2022-12-16T23:40:38.671Z,23.00
2022-12-16T23:43:10.140Z,26.13
2022-12-16T23:45:43.605Z,23.53
2022-12-16T23:48:17.377Z,25.63
2022-12-16T23:50:48.837Z,26.77
2022-12-16T23:53:20.254Z,21.50
2022-12-16T23:55:57.981Z,26.40
2022-12-16T23:58:29.409Z,27.77
